Time;durP1;ratioP1;P1;durP2;ratioP2;P2;SDS_P1;SDS_P2;PMS_P1;PMS_P2;Temp;Humidity;BMP_temperature;BMP_pressure;BME280_temperature;BME280_humidity;BME280_pressure;Samples;Min_cycle;Max_cycle;Signal;HPM_P1;HPM_P2
2021/10/08 00:00:34;;;;;;;32.00;11.20;;;;;;;6.54;53.33;100225.42;113152;1195;107391;-71
2021/10/08 00:03:12;;;;;;;36.30;11.90;;;;;;;6.52;53.55;100226.73;113213;1195;99014;-72
2021/10/08 00:05:42;;;;;;;30.90;11.80;;;;;;;6.50;53.46;100228.55;113378;1193;96407;-71
2021/10/08 00:08:10;;;;;;;32.30;12.10;;;;;;;6.50;53.44;100228.92;113376;1193;112515;-70
2021/10/08 00:10:38;;;;;;;32.40;12.10;;;;;;;6.48;53.60;100228.45;113443;1193;99021;-69
2021/10/08 00:13:06;;;;;;;27.70;10.00;;;;;;;6.47;53.66;100229.19;113424;1194;106701;-71
2021/10/08 00:15:33;;;;;;;30.70;11.40;;;;;;;6.45;53.75;100227.50;113425;1193;99071;-70
2021/10/08 00:18:01;;;;;;;32.70;10.60;;;;;;;6.44;53.69;100228.95;113445;1193;99002;-71
2021/10/08 00:20:33;;;;;;;29.20;11.20;;;;;;;6.42;53.62;100227.80;113405;1193;111316;-71
2021/10/08 00:23:02;;;;;;;25.30;11.20;;;;;;;6.42;53.80;100224.45;113412;1193;96386;-70
2021/10/08 00:25:39;;;;;;;29.50;10.30;;;;;;;6.41;53.86;100226.05;113432;1193;107514;-69
2021/10/08 00:28:10;;;;;;;;;;;;;;;6.40;53.81;100225.40;113395;1193;96444;-69
2021/10/08 00:30:38;;;;;;;32.10;10.50;;;;;;;6.36;53.93;100229.77;113448;1194;99691;-70
2021/10/08 00:33:06;;;;;;;31.90;10.90;;;;;;;6.34;53.76;100229.66;113459;1193;112121;-70
2021/10/08 00:35:37;;;;;;;36.30;10.90;;;;;;;6.32;53.78;100232.89;113508;1193;98827;-72
2021/10/08 00:38:08;;;;;;;26.40;10.30;;;;;;;6.30;53.85;100231.23;113410;1193;106441;-71
2021/10/08 00:40:43;;;;;;;26.50;10.90;;;;;;;6.29;54.04;100237.62;113203;1195;99001;-71
2021/10/08 00:43:19;;;;;;;28.80;11.00;;;;;;;6.27;53.94;100235.73;113467;1181;99006;-71
2021/10/08 00:45:53;;;;;;;32.50;11.30;;;;;;;6.24;53.95;100238.30;113428;1193;112562;-70
2021/10/08 00:48:24;;;;;;;30.60;11.70;;;;;;;6.21;53.95;100237.52;113304;1194;99367;-70
2021/10/08 00:50:51;;;;;;;29.10;11.10;;;;;;;6.19;54.22;100236.89;113413;1194;107584;-70
2021/10/08 00:53:23;;;;;;;32.30;13.20;;;;;;;6.17;54.18;100236.27;113473;1193;98875;-71
2021/10/08 00:55:55;;;;;;;32.90;12.00;;;;;;;6.12;54.15;100237.83;113438;1194;98980;-70
2021/10/08 00:58:26;;;;;;;30.10;11.30;;;;;;;6.09;54.19;100236.20;113410;1193;112577;-70
2021/10/08 01:00:54;;;;;;;31.10;12.00;;;;;;;6.06;54.17;100241.23;113439;1193;98943;-69
2021/10/08 01:03:25;;;;;;;30.90;11.60;;;;;;;6.02;54.16;100243.11;113446;1193;107493;-69
2021/10/08 01:05:53;;;;;;;33.70;13.20;;;;;;;5.94;54.23;100243.52;113421;1194;98254;-70
2021/10/08 01:08:21;;;;;;;29.30;11.30;;;;;;;5.91;54.22;100244.33;113451;1193;96485;-69
2021/10/08 01:10:48;;;;;;;31.70;11.10;;;;;;;5.90;54.29;100246.48;113205;1195;112523;-69
2021/10/08 01:13:20;;;;;;;27.80;11.40;;;;;;;5.90;54.46;100247.55;113403;1193;99022;-70
2021/10/08 01:15:48;;;;;;;29.90;11.90;;;;;;;5.89;54.34;100245.14;113458;1193;108166;-70
2021/10/08 01:18:19;;;;;;;31.60;13.00;;;;;;;5.87;54.37;100248.55;113161;1194;99012;-71
2021/10/08 01:20:47;;;;;;;34.00;12.00;;;;;;;5.87;54.43;100245.04;113424;1193;98979;-70
2021/10/08 01:23:14;;;;;;;30.00;11.80;;;;;;;5.86;54.38;100246.11;113434;1194;112515;-72
2021/10/08 01:25:48;;;;;;;31.60;10.80;;;;;;;5.85;54.41;100250.18;113313;1195;98999;-71
2021/10/08 01:28:16;;;;;;;28.80;11.40;;;;;;;5.85;54.37;100248.44;113204;1194;107499;-72
2021/10/08 01:30:43;;;;;;;31.00;12.50;;;;;;;5.83;54.48;100247.29;113441;1193;96442;-71
2021/10/08 01:33:11;;;;;;;35.80;12.40;;;;;;;5.80;54.43;100247.38;113349;1194;99006;-72
2021/10/08 01:35:42;;;;;;;26.40;10.80;;;;;;;5.78;54.49;100246.21;113348;1195;112579;-70
2021/10/08 01:38:10;;;;;;;30.90;11.50;;;;;;;5.76;54.54;100249.60;113216;1195;98862;-69
2021/10/08 01:40:38;;;;;;;28.10;10.80;;;;;;;5.72;54.47;100244.63;113297;1195;107508;-70
2021/10/08 01:43:06;;;;;;;30.50;10.50;;;;;;;5.71;54.49;100244.15;113253;1195;98977;-70
2021/10/08 01:45:34;;;;;;;29.10;10.90;;;;;;;5.69;54.55;100242.45;113270;1194;99006;-70
2021/10/08 01:48:02;;;;;;;29.20;11.00;;;;;;;5.66;54.53;100245.36;113340;1195;112512;-70
2021/10/08 01:50:34;;;;;;;29.00;12.00;;;;;;;5.63;54.66;100248.12;113277;1195;98992;-69
2021/10/08 01:53:01;;;;;;;31.70;11.80;;;;;;;5.58;54.56;100251.98;113311;1195;107508;-71
2021/10/08 01:55:29;;;;;;;34.50;10.80;;;;;;;5.55;54.67;100251.19;113310;1195;98982;-71
2021/10/08 01:57:57;;;;;;;29.40;11.10;;;;;;;5.53;54.72;100255.46;113336;1195;99006;-71
2021/10/08 02:00:28;;;;;;;28.70;11.30;;;;;;;5.50;54.64;100249.07;113219;1195;112530;-71
2021/10/08 02:02:56;;;;;;;29.30;11.40;;;;;;;5.47;54.78;100253.89;113396;1195;96423;-72
2021/10/08 02:05:24;;;;;;;39.00;13.10;;;;;;;5.46;54.82;100259.55;113247;1196;107635;-70
2021/10/08 02:07:52;;;;;;;31.50;11.50;;;;;;;5.44;54.73;100260.67;113323;1195;99010;-72
2021/10/08 02:10:20;;;;;;;35.80;12.00;;;;;;;5.41;54.67;100259.91;113332;1195;96302;-72
2021/10/08 02:12:48;;;;;;;32.80;11.80;;;;;;;5.36;54.63;100262.35;113334;1196;112479;-71
2021/10/08 02:15:16;;;;;;;32.30;11.30;;;;;;;5.29;54.75;100269.27;113391;1195;99023;-74
2021/10/08 02:17:47;;;;;;;31.10;12.20;;;;;;;5.24;54.83;100269.41;113294;1195;107564;-73
2021/10/08 02:20:15;;;;;;;29.50;11.40;;;;;;;5.21;54.88;100267.20;113345;1195;99631;-73
2021/10/08 02:22:44;;;;;;;32.00;11.30;;;;;;;5.20;54.99;100268.81;113323;1195;98907;-72
2021/10/08 02:25:11;;;;;;;31.60;12.00;;;;;;;5.19;54.93;100269.39;113225;1195;112666;-71
2021/10/08 02:27:39;;;;;;;34.80;12.90;;;;;;;5.16;54.94;100270.71;113459;1193;97837;-71
2021/10/08 02:30:08;;;;;;;31.20;12.10;;;;;;;5.13;55.04;100275.55;113446;1193;105748;-71
2021/10/08 02:32:35;;;;;;;34.70;11.50;;;;;;;5.06;55.02;100274.70;113186;1195;98946;-71
2021/10/08 02:35:07;;;;;;;29.30;12.20;;;;;;;5.04;54.93;100277.93;113350;1195;96338;-72
2021/10/08 02:37:38;;;;;;;28.70;11.90;;;;;;;5.02;55.14;100283.80;113288;1202;112514;-71
2021/10/08 02:40:10;;;;;;;34.50;12.60;;;;;;;5.00;55.08;100290.89;113330;1195;97837;-71
2021/10/08 02:42:41;;;;;;;34.10;12.30;;;;;;;4.97;55.13;100289.22;113303;1195;107545;-72
2021/10/08 02:45:09;;;;;;;33.10;11.80;;;;;;;4.91;55.15;100295.01;113399;1193;99033;-71
2021/10/08 02:47:36;;;;;;;33.20;11.90;;;;;;;4.88;55.24;100294.39;113192;1195;99027;-75
2021/10/08 02:50:07;;;;;;;33.20;12.20;;;;;;;4.86;55.22;100295.71;113431;1193;112543;-73
2021/10/08 02:52:35;;;;;;;28.50;11.40;;;;;;;4.84;55.35;100297.67;113357;1193;98884;-73
2021/10/08 02:55:08;;;;;;;29.70;12.40;;;;;;;4.84;55.37;100307.16;113434;1193;107520;-70
2021/10/08 02:57:40;;;;;;;32.10;12.30;;;;;;;4.82;55.22;100308.30;113373;1193;97154;-70
2021/10/08 03:00:11;;;;;;;35.30;12.90;;;;;;;4.81;55.38;100311.15;113484;1193;96374;-70
2021/10/08 03:02:42;;;;;;;35.00;11.40;;;;;;;4.75;55.29;100315.49;113398;1187;112640;-70
2021/10/08 03:05:10;;;;;;;35.90;12.60;;;;;;;4.72;55.50;100318.75;113421;1195;98993;-70
2021/10/08 03:07:41;;;;;;;42.00;13.30;;;;;;;4.71;55.41;100320.55;113456;1193;107576;-70
2021/10/08 03:10:20;;;;;;;31.30;11.40;;;;;;;4.68;55.53;100318.53;113415;1193;98998;-72
2021/10/08 03:12:51;;;;;;;33.90;13.40;;;;;;;4.65;55.56;100322.30;113261;1195;98886;-70
2021/10/08 03:15:19;;;;;;;35.70;12.50;;;;;;;4.58;55.42;100322.66;113356;1193;112557;-71
2021/10/08 03:17:47;;;;;;;31.70;11.70;;;;;;;4.53;55.42;100326.85;113327;1196;98876;-70
2021/10/08 03:20:15;;;;;;;38.10;13.40;;;;;;;4.51;55.50;100331.98;113376;1197;107261;-71
2021/10/08 03:22:42;;;;;;;29.50;11.60;;;;;;;4.49;55.51;100332.91;113495;1197;98954;-70
2021/10/08 03:25:13;;;;;;;36.60;13.40;;;;;;;4.47;55.57;100339.13;113501;1193;99007;-70
2021/10/08 03:27:45;;;;;;;36.90;13.90;;;;;;;4.43;55.56;100343.80;113419;1193;112321;-69
2021/10/08 03:30:17;;;;;;;35.80;12.60;;;;;;;4.37;55.78;100347.64;113425;1193;98776;-70
2021/10/08 03:32:45;;;;;;;36.50;11.80;;;;;;;4.35;55.64;100351.73;113459;1193;107526;-70
2021/10/08 03:35:13;;;;;;;33.10;11.10;;;;;;;4.36;55.73;100350.69;113415;1193;99025;-71
2021/10/08 03:37:53;;;;;;;31.00;11.50;;;;;;;4.34;55.67;100354.05;113402;1193;98045;-69
2021/10/08 03:40:29;;;;;;;32.20;11.10;;;;;;;4.32;55.87;100357.61;113417;1194;112578;-71
2021/10/08 03:43:01;;;;;;;;;;;;;;;4.29;55.72;100363.13;113410;1194;99014;-69
2021/10/08 03:45:42;;;;;;;33.60;11.50;;;;;;;4.26;55.85;100359.87;113403;1193;107495;-70
2021/10/08 03:50:50;;;;;;;28.40;10.70;;;;;;;4.23;55.78;100355.75;113366;1193;99001;-69
2021/10/08 03:53:18;;;;;;;28.40;11.10;;;;;;;4.20;55.62;100354.40;113355;1193;111493;-70
2021/10/08 03:55:49;;;;;;;32.40;11.90;;;;;;;4.17;55.97;100353.79;113416;1193;96486;-71
2021/10/08 03:58:18;;;;;;;33.20;11.80;;;;;;;4.16;55.86;100358.20;113336;1193;107346;-69
2021/10/08 04:00:49;;;;;;;32.00;13.10;;;;;;;4.16;56.04;100358.02;113075;1196;99017;-69
2021/10/08 04:03:17;;;;;;;31.90;12.60;;;;;;;4.16;56.01;100362.40;113254;1195;99129;-69
2021/10/08 04:05:45;;;;;;;36.00;13.10;;;;;;;4.14;55.97;100362.79;113185;1195;112522;-70
2021/10/08 04:08:16;;;;;;;30.30;11.30;;;;;;;4.14;55.91;100369.30;113329;1193;99036;-70
2021/10/08 04:10:43;;;;;;;30.50;11.00;;;;;;;4.14;56.10;100375.63;113294;1194;107486;-69
2021/10/08 04:13:11;;;;;;;33.50;10.90;;;;;;;4.15;56.09;100372.45;113302;1195;98986;-70
2021/10/08 04:15:39;;;;;;;33.70;10.70;;;;;;;4.12;56.12;100375.51;113200;1195;99053;-71
2021/10/08 04:18:11;;;;;;;29.40;11.10;;;;;;;4.08;56.25;100380.15;113187;1196;113527;-70
2021/10/08 04:20:43;;;;;;;37.00;11.90;;;;;;;4.06;56.35;100377.95;113359;1196;99017;-70
2021/10/08 04:23:11;;;;;;;28.10;10.60;;;;;;;4.05;56.25;100381.48;113358;1196;108086;-69
2021/10/08 04:25:42;;;;;;;30.80;10.80;;;;;;;4.04;56.15;100383.08;113398;1193;99038;-69
2021/10/08 04:28:10;;;;;;;28.90;10.20;;;;;;;4.02;56.38;100384.69;113278;1196;99009;-70
2021/10/08 04:30:41;;;;;;;33.90;11.30;;;;;;;4.00;56.26;100386.48;113374;1196;113754;-70
2021/10/08 04:33:19;;;;;;;30.80;10.80;;;;;;;3.99;56.28;100387.75;113366;1195;98934;-69
2021/10/08 04:35:50;;;;;;;34.10;11.50;;;;;;;3.98;56.50;100387.60;113423;1193;108200;-69
2021/10/08 04:38:22;;;;;;;28.40;11.60;;;;;;;3.95;56.36;100390.31;113412;1193;99007;-71
2021/10/08 04:40:50;;;;;;;33.50;12.00;;;;;;;3.93;56.47;100394.21;113472;1193;99029;-69
2021/10/08 04:43:21;;;;;;;27.50;10.70;;;;;;;3.91;56.41;100397.60;113446;1193;112291;-70
2021/10/08 04:45:53;;;;;;;31.30;12.20;;;;;;;3.90;56.48;100397.45;113424;1193;97902;-70
2021/10/08 04:48:24;;;;;;;31.00;11.40;;;;;;;3.88;56.72;100401.70;113428;1193;106095;-71
2021/10/08 04:50:52;;;;;;;33.60;11.90;;;;;;;3.87;56.38;100400.50;113453;1193;98975;-70
2021/10/08 04:53:24;;;;;;;25.40;10.50;;;;;;;3.85;56.64;100399.15;113495;1194;98932;-70
2021/10/08 04:55:52;;;;;;;35.90;11.70;;;;;;;3.84;56.65;100400.39;113428;1193;112333;-70
2021/10/08 04:58:22;;;;;;;33.10;10.90;;;;;;;3.83;56.72;100402.71;113382;1197;98898;-70
2021/10/08 05:00:50;;;;;;;34.30;11.30;;;;;;;3.83;56.73;100405.86;113433;1193;107443;-69
2021/10/08 05:03:22;;;;;;;29.60;11.20;;;;;;;3.85;56.88;100408.28;113404;1196;99601;-69
2021/10/08 05:05:53;;;;;;;31.10;11.00;;;;;;;3.85;56.74;100410.91;113398;1193;98973;-71
2021/10/08 05:08:23;;;;;;;37.20;11.90;;;;;;;3.84;56.59;100411.29;113338;1195;112626;-71
2021/10/08 05:10:52;;;;;;;29.10;11.90;;;;;;;3.83;56.79;100414.80;113368;1193;98901;-70
2021/10/08 05:13:20;;;;;;;33.60;12.00;;;;;;;3.82;56.64;100414.48;113412;1193;107158;-70
2021/10/08 05:15:48;;;;;;;30.90;12.60;;;;;;;3.82;56.67;100421.34;113379;1195;98914;-70
2021/10/08 05:18:19;;;;;;;33.40;12.10;;;;;;;3.81;57.00;100424.33;113253;1193;98905;-71
2021/10/08 05:20:46;;;;;;;25.20;10.50;;;;;;;3.82;56.91;100429.73;113449;1193;111344;-70
2021/10/08 05:23:14;;;;;;;31.00;10.20;;;;;;;3.83;56.97;100433.06;113377;1193;98939;-71
2021/10/08 05:25:42;;;;;;;32.00;12.60;;;;;;;3.82;56.92;100434.14;113387;1193;105587;-70
2021/10/08 05:28:10;;;;;;;31.60;13.00;;;;;;;3.82;56.94;100439.23;113424;1193;99013;-70
2021/10/08 05:30:38;;;;;;;29.30;11.00;;;;;;;3.83;56.95;100439.21;113464;1193;98924;-70
2021/10/08 05:33:06;;;;;;;32.40;11.60;;;;;;;3.82;56.86;100439.58;113356;1187;112623;-69
2021/10/08 05:35:33;;;;;;;38.70;12.20;;;;;;;3.83;57.02;100445.34;113242;1195;98247;-71
2021/10/08 05:38:08;;;;;;;29.80;11.50;;;;;;;3.83;57.04;100448.49;113315;1193;105574;-71
2021/10/08 05:40:36;;;;;;;28.10;11.10;;;;;;;3.82;57.10;100445.36;113281;1197;99014;-72
2021/10/08 05:43:03;;;;;;;30.10;11.60;;;;;;;3.81;57.01;100449.59;113468;1193;99032;-71
2021/10/08 05:45:31;;;;;;;34.40;12.50;;;;;;;3.80;57.02;100452.96;113366;1197;111665;-72
2021/10/08 05:47:59;;;;;;;35.40;12.20;;;;;;;3.79;57.04;100451.92;113299;1197;98946;-71
2021/10/08 05:50:34;;;;;;;35.10;14.00;;;;;;;3.77;56.87;100457.77;113397;1196;107457;-70
2021/10/08 05:53:11;;;;;;;30.60;11.90;;;;;;;3.76;57.17;100453.73;113364;1195;99097;-71
2021/10/08 05:55:42;;;;;;;31.10;10.90;;;;;;;3.76;57.21;100460.59;113378;1196;98980;-73
2021/10/08 05:58:10;;;;;;;33.90;11.50;;;;;;;3.75;57.39;100463.60;113375;1197;112564;-72
2021/10/08 06:00:38;;;;;;;29.80;11.50;;;;;;;3.73;57.24;100459.23;113448;1193;99103;-72
2021/10/08 06:03:09;;;;;;;40.80;14.00;;;;;;;3.73;57.27;100454.51;113349;1193;107531;-72
2021/10/08 06:05:41;;;;;;;35.50;14.90;;;;;;;3.75;57.23;100459.38;113401;1193;99032;-71
2021/10/08 06:08:10;;;;;;;35.80;12.50;;;;;;;3.77;57.42;100461.27;113438;1193;97381;-71
2021/10/08 06:10:41;;;;;;;36.20;12.80;;;;;;;3.77;57.22;100462.86;113330;1193;112499;-69
2021/10/08 06:13:10;;;;;;;31.20;12.10;;;;;;;3.76;57.22;100462.51;113388;1197;98946;-70
2021/10/08 06:15:39;;;;;;;36.00;12.50;;;;;;;3.79;57.33;100466.31;113343;1195;107513;-71
2021/10/08 06:18:07;;;;;;;37.80;13.10;;;;;;;3.82;57.64;100468.88;113458;1193;98941;-71
2021/10/08 06:20:35;;;;;;;36.60;14.30;;;;;;;3.85;57.46;100472.16;113388;1193;98920;-71
2021/10/08 06:23:06;;;;;;;36.60;13.20;;;;;;;3.87;57.61;100475.96;113426;1193;112503;-71
2021/10/08 06:25:34;;;;;;;31.30;11.10;;;;;;;3.90;57.80;100473.27;113418;1193;98982;-72
2021/10/08 06:28:02;;;;;;;31.70;11.70;;;;;;;3.94;57.61;100475.30;113319;1193;107395;-71
2021/10/08 06:30:34;;;;;;;33.70;12.20;;;;;;;3.97;57.63;100476.45;113404;1193;98981;-70
2021/10/08 06:33:02;;;;;;;32.60;13.00;;;;;;;4.00;57.48;100475.31;113285;1196;99017;-71
2021/10/08 06:35:32;;;;;;;32.50;12.20;;;;;;;4.01;57.49;100480.05;113412;1193;112483;-70
2021/10/08 06:38:02;;;;;;;28.30;11.50;;;;;;;4.04;57.51;100479.97;113424;1193;99012;-70
2021/10/08 06:40:34;;;;;;;32.30;12.90;;;;;;;4.08;57.51;100480.59;113414;1193;107983;-69
2021/10/08 06:43:02;;;;;;;34.40;13.00;;;;;;;4.11;57.78;100484.02;113380;1193;96389;-70
2021/10/08 06:45:34;;;;;;;31.50;12.30;;;;;;;4.15;57.76;100487.79;113329;1193;99020;-70
2021/10/08 06:48:06;;;;;;;36.50;15.20;;;;;;;4.21;57.83;100487.30;113314;1193;112698;-70
2021/10/08 06:50:35;;;;;;;30.50;12.20;;;;;;;4.25;57.96;100487.02;113312;1193;100056;-71
2021/10/08 06:53:03;;;;;;;30.40;11.30;;;;;;;4.29;57.69;100491.31;113265;1196;107064;-71
2021/10/08 06:55:31;;;;;;;36.90;12.90;;;;;;;4.34;57.83;100492.44;113338;1196;98903;-71
2021/10/08 06:57:59;;;;;;;28.50;12.00;;;;;;;4.38;57.84;100494.64;113474;1193;98959;-71
2021/10/08 07:00:33;;;;;;;30.90;12.00;;;;;;;4.43;57.89;100495.04;113190;1196;112483;-71
2021/10/08 07:03:03;;;;;;;31.40;12.50;;;;;;;4.49;57.97;100505.08;113404;1193;99049;-69
2021/10/08 07:05:30;;;;;;;33.30;11.90;;;;;;;4.56;58.01;100503.84;113242;1196;107378;-70
2021/10/08 07:07:58;;;;;;;31.60;12.20;;;;;;;4.63;57.92;100500.19;113294;1193;98945;-70
2021/10/08 07:10:30;;;;;;;30.50;12.70;;;;;;;4.69;57.94;100506.70;113422;1193;96480;-71
2021/10/08 07:12:58;;;;;;;33.30;12.60;;;;;;;4.75;58.05;100512.85;113400;1195;112263;-71
2021/10/08 07:15:30;;;;;;;33.20;11.60;;;;;;;4.82;58.06;100514.98;113369;1195;98937;-67
2021/10/08 07:17:58;;;;;;;35.80;14.50;;;;;;;4.90;57.98;100518.48;113442;1193;106528;-72
2021/10/08 07:20:32;;;;;;;30.10;12.40;;;;;;;4.93;58.05;100514.52;113344;1193;97106;-72
2021/10/08 07:23:05;;;;;;;31.20;12.20;;;;;;;5.00;58.11;100516.45;113106;1193;96480;-71
2021/10/08 07:25:33;;;;;;;28.30;12.00;;;;;;;5.08;58.09;100513.61;113238;1195;113699;-69
2021/10/08 07:28:01;;;;;;;34.00;12.80;;;;;;;5.16;58.08;100510.20;113399;1193;98857;-71
2021/10/08 07:30:33;;;;;;;24.70;11.00;;;;;;;5.26;58.09;100510.14;113338;1193;107507;-70
2021/10/08 07:33:00;;;;;;;33.60;12.30;;;;;;;5.34;58.17;100508.85;113428;1194;98981;-71
2021/10/08 07:35:32;;;;;;;31.40;11.20;;;;;;;5.44;58.16;100512.98;113413;1193;99008;-72
2021/10/08 07:38:00;;;;;;;27.40;12.40;;;;;;;5.54;58.19;100512.52;113406;1195;112464;-71
2021/10/08 07:40:31;;;;;;;31.30;11.70;;;;;;;5.64;58.25;100514.69;113137;1193;98919;-71
2021/10/08 07:42:59;;;;;;;34.80;13.50;;;;;;;5.74;58.21;100516.52;113304;1193;107565;-71
2021/10/08 07:45:30;;;;;;;29.20;11.80;;;;;;;5.83;58.20;100516.07;113342;1196;99002;-74
2021/10/08 07:47:57;;;;;;;30.90;11.80;;;;;;;5.93;58.12;100513.48;113425;1193;96341;-71
2021/10/08 07:50:26;;;;;;;37.50;12.50;;;;;;;6.04;58.13;100516.02;113364;1193;112540;-71
2021/10/08 07:52:53;;;;;;;29.60;11.30;;;;;;;6.14;58.12;100512.02;113339;1195;97669;-72
2021/10/08 07:55:21;;;;;;;26.50;11.10;;;;;;;6.26;58.25;100518.70;113310;1193;107513;-70
2021/10/08 07:57:49;;;;;;;32.40;10.90;;;;;;;6.35;58.13;100519.44;113274;1195;99351;-71
2021/10/08 08:00:17;;;;;;;33.40;12.40;;;;;;;6.46;58.33;100524.02;113347;1193;98883;-71
2021/10/08 08:02:45;;;;;;;30.30;12.50;;;;;;;6.57;58.17;100521.58;113333;1193;112540;-71
2021/10/08 08:05:14;;;;;;;30.40;11.80;;;;;;;6.66;58.28;100519.67;113341;1193;98943;-72
2021/10/08 08:07:42;;;;;;;28.30;11.40;;;;;;;6.76;58.14;100522.16;113282;1196;107952;-72
2021/10/08 08:10:12;;;;;;;42.00;13.90;;;;;;;6.85;58.28;100522.76;113179;1193;98992;-72
2021/10/08 08:12:41;;;;;;;32.90;10.40;;;;;;;6.95;58.06;100519.78;113203;1193;97040;-72
2021/10/08 08:15:09;;;;;;;33.10;12.10;;;;;;;7.06;58.08;100527.86;113999;1193;112333;-72
2021/10/08 08:17:37;;;;;;;27.50;11.30;;;;;;;7.15;58.00;100523.66;113092;1193;98899;-73
2021/10/08 08:20:09;;;;;;;27.10;10.90;;;;;;;7.27;58.12;100524.84;113270;1193;107523;-72
2021/10/08 08:22:40;;;;;;;26.90;11.00;;;;;;;7.38;58.11;100521.98;113187;1193;98891;-71
2021/10/08 08:25:11;;;;;;;29.40;11.30;;;;;;;7.52;58.14;100529.42;113076;1195;98967;-72
2021/10/08 08:27:39;;;;;;;25.20;10.20;;;;;;;7.69;58.03;100527.05;113189;1195;112447;-71
2021/10/08 08:30:11;;;;;;;29.10;10.80;;;;;;;8.12;58.24;100522.73;113172;1193;97022;-71
2021/10/08 08:32:39;;;;;;;32.90;11.20;;;;;;;8.90;58.20;100524.05;113337;1193;107543;-72
2021/10/08 08:35:10;;;;;;;31.70;10.20;;;;;;;9.65;58.00;100518.48;113336;1193;98926;-71
2021/10/08 08:37:38;;;;;;;30.40;11.40;;;;;;;10.35;58.07;100521.98;113298;1195;96388;-72
2021/10/08 08:40:10;;;;;;;26.40;10.30;;;;;;;11.07;57.92;100521.45;113381;1193;112456;-71
2021/10/08 08:42:39;;;;;;;25.40;9.60;;;;;;;11.70;57.74;100518.14;113150;1196;98960;-72
2021/10/08 08:45:07;;;;;;;29.40;9.90;;;;;;;12.18;57.76;100512.02;113303;1193;107341;-73
2021/10/08 08:47:35;;;;;;;26.20;10.30;;;;;;;12.68;57.85;100514.36;113304;1193;98239;-72
2021/10/08 08:50:15;;;;;;;32.70;11.40;;;;;;;13.10;57.77;100510.09;113283;1196;98917;-70
2021/10/08 08:52:47;;;;;;;24.90;10.10;;;;;;;13.40;57.59;100511.17;113344;1195;112634;-72
2021/10/08 08:55:15;;;;;;;29.30;13.40;;;;;;;13.59;57.26;100513.58;113328;1195;98868;-72
2021/10/08 08:57:44;;;;;;;30.00;12.70;;;;;;;13.67;56.80;100515.90;113292;1195;107625;-73
2021/10/08 09:00:19;;;;;;;29.20;10.50;;;;;;;13.76;56.52;100513.74;113194;1196;99649;-73
2021/10/08 09:03:01;;;;;;;26.10;10.30;;;;;;;13.89;56.24;100514.39;113344;1193;96371;-71
2021/10/08 09:05:34;;;;;;;29.70;11.40;;;;;;;14.07;56.25;100518.36;113336;1193;112466;-73
2021/10/08 09:08:13;;;;;;;30.10;10.90;;;;;;;14.24;56.14;100524.23;113353;1193;97059;-72
2021/10/08 09:10:46;;;;;;;29.20;11.80;;;;;;;14.46;56.04;100526.42;113116;1193;107334;-70
2021/10/08 09:13:18;;;;;;;31.80;13.10;;;;;;;14.72;55.77;100520.28;113282;1193;98978;-74
2021/10/08 09:15:55;;;;;;;27.10;11.80;;;;;;;14.96;55.51;100522.95;113229;1196;99040;-72
2021/10/08 09:18:33;;;;;;;27.70;10.30;;;;;;;15.29;55.70;100519.64;113117;1187;112564;-74
2021/10/08 09:21:07;;;;;;;26.50;10.90;;;;;;;15.61;55.16;100516.16;113342;1193;98990;-74
2021/10/08 09:23:52;;;;;;;22.10;9.30;;;;;;;15.95;54.23;100516.50;113289;1193;107515;-73
2021/10/08 09:26:25;;;;;;;27.20;10.60;;;;;;;16.36;54.60;100508.67;113387;1193;97125;-73
2021/10/08 09:29:01;;;;;;;;;;;;;;;16.63;54.29;100507.57;113321;1193;98950;-72
2021/10/08 09:31:40;;;;;;;26.40;9.80;;;;;;;16.70;54.07;100514.59;113016;1195;112541;-73
2021/10/08 09:34:11;;;;;;;28.80;9.70;;;;;;;16.74;53.70;100510.89;113100;1195;98921;-73
2021/10/08 09:36:46;;;;;;;25.80;10.20;;;;;;;16.70;53.36;100510.99;113353;1195;107530;-73
2021/10/08 09:39:32;;;;;;;32.70;11.60;;;;;;;16.62;53.20;100511.80;113355;1193;97092;-73
2021/10/08 09:42:08;;;;;;;28.40;9.00;;;;;;;16.54;51.17;100511.84;113412;1193;98885;-72
2021/10/08 09:44:45;;;;;;;25.80;9.30;;;;;;;16.48;52.34;100504.09;113242;1195;112533;-75
2021/10/08 09:47:22;;;;;;;29.20;8.60;;;;;;;16.40;51.80;100508.75;113064;1195;99001;-72
2021/10/08 09:50:14;;;;;;;28.10;8.30;;;;;;;16.39;51.64;100509.02;113237;1194;106731;-69
2021/10/08 09:52:41;;;;;;;23.50;8.20;;;;;;;16.32;51.12;100505.73;113362;1193;99641;-71
2021/10/08 09:55:14;;;;;;;22.60;7.90;;;;;;;16.25;51.04;100505.90;113361;1193;98929;-70
2021/10/08 09:57:48;;;;;;;23.90;9.70;;;;;;;16.16;49.76;100502.27;113345;1193;112609;-72
2021/10/08 10:00:38;;;;;;;21.70;8.00;;;;;;;16.07;50.32;100509.39;113289;1193;99001;-72
2021/10/08 10:03:13;;;;;;;28.30;11.40;;;;;;;16.09;50.04;100505.85;113267;1196;108486;-70
2021/10/08 10:05:44;;;;;;;26.40;9.20;;;;;;;16.10;50.23;100498.23;113395;1193;97305;-72
2021/10/08 10:08:15;;;;;;;23.70;8.90;;;;;;;16.04;49.73;100493.12;113342;1193;99541;-72
2021/10/08 10:10:44;;;;;;;34.70;8.60;;;;;;;15.96;48.70;100498.88;113374;1193;112535;-73
2021/10/08 10:13:15;;;;;;;23.00;7.90;;;;;;;15.87;48.30;100506.88;113322;1196;98973;-74
2021/10/08 10:15:46;;;;;;;26.40;8.20;;;;;;;15.83;48.56;100502.65;113245;1193;107474;-73
2021/10/08 10:18:17;;;;;;;26.20;8.10;;;;;;;15.80;47.86;100499.29;113284;1193;99042;-71
2021/10/08 10:20:49;;;;;;;24.10;8.50;;;;;;;15.70;47.77;100498.73;113387;1195;98998;-72
2021/10/08 10:23:23;;;;;;;24.10;7.90;;;;;;;15.60;48.02;100503.72;113397;1195;112404;-73
2021/10/08 10:25:54;;;;;;;28.60;7.90;;;;;;;15.57;46.94;100501.50;113272;1195;98906;-73
2021/10/08 10:28:22;;;;;;;22.80;8.00;;;;;;;15.48;47.61;100498.69;113325;1193;107677;-72
2021/10/08 10:30:54;;;;;;;22.80;7.80;;;;;;;15.43;47.87;100496.67;113285;1179;98882;-72
2021/10/08 10:33:28;;;;;;;24.00;7.90;;;;;;;15.43;47.52;100493.13;113211;1195;96355;-72
2021/10/08 10:36:00;;;;;;;26.00;7.80;;;;;;;15.50;47.36;100495.83;113409;1195;112553;-72
2021/10/08 10:38:38;;;;;;;25.40;8.50;;;;;;;15.53;46.80;100493.31;113467;1195;98925;-73
2021/10/08 10:41:12;;;;;;;29.00;7.60;;;;;;;15.53;47.01;100492.07;113390;1193;107695;-73
2021/10/08 10:43:48;;;;;;;23.10;7.30;;;;;;;15.45;45.71;100488.14;113389;1193;98988;-72
2021/10/08 10:46:21;;;;;;;24.40;7.40;;;;;;;15.39;46.01;100490.59;113399;1193;98905;-73
2021/10/08 10:49:15;;;;;;;24.60;7.90;;;;;;;15.35;45.69;100487.06;113342;1195;112522;-74
2021/10/08 10:51:56;;;;;;;21.50;7.40;;;;;;;15.28;45.63;100486.09;113404;1195;98145;-73
2021/10/08 10:54:51;;;;;;;20.30;6.90;;;;;;;15.21;45.28;100486.45;113329;1200;107490;-72
2021/10/08 10:57:31;;;;;;;24.80;8.20;;;;;;;15.18;45.54;100486.83;113317;1195;98884;-75
2021/10/08 11:00:45;;;;;;;26.00;7.90;;;;;;;15.17;45.02;100488.27;113347;1193;98992;-75
2021/10/08 11:03:36;;;;;;;21.90;7.10;;;;;;;15.13;45.00;100485.35;112764;1199;112555;-72
2021/10/08 11:06:20;;;;;;;29.40;7.60;;;;;;;15.13;45.20;100495.16;113318;1195;96399;-72
2021/10/08 11:09:09;;;;;;;25.00;6.70;;;;;;;15.17;44.88;100493.83;112935;1195;107492;-72
2021/10/08 11:11:43;;;;;;;23.30;7.10;;;;;;;15.21;44.74;100495.05;113392;1186;98938;-72
2021/10/08 11:14:20;;;;;;;26.70;7.40;;;;;;;15.18;44.06;100491.95;113184;1193;97731;-73
2021/10/08 11:16:48;;;;;;;24.40;6.90;;;;;;;15.18;43.81;100495.77;113214;1193;112549;-73
2021/10/08 11:19:44;;;;;;;29.60;8.40;;;;;;;15.18;43.62;100491.45;113220;1193;98978;-72
2021/10/08 11:22:12;;;;;;;30.80;8.00;;;;;;;15.18;43.84;100494.85;113494;1193;107554;-73
2021/10/08 11:24:40;;;;;;;37.10;8.10;;;;;;;15.18;43.62;100491.98;113153;1195;97527;-74
2021/10/08 11:27:08;;;;;;;24.90;7.10;;;;;;;15.19;43.53;100490.67;113961;1193;97416;-73